sensor_id;sensor_type;location;lat;lon;timestamp;P1;durP1;ratioP1;P2;durP2;ratioP2
12271;SDS011;6198;51.446;6.698;2024-03-25T00:01:15;37.10;;;18.67;;
12271;SDS011;6198;51.446;6.698;2024-03-25T00:03:41;41.07;;;24.20;;
12271;SDS011;6198;51.446;6.698;2024-03-25T00:06:07;38.37;;;23.77;;
12271;SDS011;6198;51.446;6.698;2024-03-25T00:08:33;38.17;;;21.67;;
12271;SDS011;6198;51.446;6.698;2024-03-25T00:10:59;50.37;;;24.23;;
12271;SDS011;6198;51.446;6.698;2024-03-25T00:13:25;35.50;;;21.57;;
12271;SDS011;6198;51.446;6.698;2024-03-25T00:15:51;39.03;;;24.57;;
12271;SDS011;6198;51.446;6.698;2024-03-25T00:18:17;40.10;;;18.93;;
12271;SDS011;6198;51.446;6.698;2024-03-25T00:20:43;32.97;;;17.30;;
12271;SDS011;6198;51.446;6.698;2024-03-25T00:23:09;37.07;;;15.17;;
12271;SDS011;6198;51.446;6.698;2024-03-25T00:25:36;33.70;;;11.80;;
12271;SDS011;6198;51.446;6.698;2024-03-25T00:28:02;22.93;;;9.97;;
12271;SDS011;6198;51.446;6.698;2024-03-25T00:30:29;23.47;;;8.83;;
12271;SDS011;6198;51.446;6.698;2024-03-25T00:32:55;26.27;;;7.70;;
12271;SDS011;6198;51.446;6.698;2024-03-25T00:35:21;26.60;;;7.23;;
12271;SDS011;6198;51.446;6.698;2024-03-25T00:37:48;24.07;;;6.67;;
12271;SDS011;6198;51.446;6.698;2024-03-25T00:40:14;18.67;;;5.97;;
12271;SDS011;6198;51.446;6.698;2024-03-25T00:42:40;21.07;;;5.80;;
12271;SDS011;6198;51.446;6.698;2024-03-25T00:45:06;22.83;;;5.97;;
12271;SDS011;6198;51.446;6.698;2024-03-25T00:47:32;27.90;;;6.17;;
12271;SDS011;6198;51.446;6.698;2024-03-25T00:49:58;23.60;;;5.43;;
12271;SDS011;6198;51.446;6.698;2024-03-25T00:52:24;22.20;;;6.47;;
12271;SDS011;6198;51.446;6.698;2024-03-25T00:54:50;33.83;;;6.30;;
12271;SDS011;6198;51.446;6.698;2024-03-25T00:57:16;17.93;;;4.90;;
12271;SDS011;6198;51.446;6.698;2024-03-25T00:59:43;20.87;;;5.13;;
12271;SDS011;6198;51.446;6.698;2024-03-25T01:02:09;23.87;;;5.33;;
12271;SDS011;6198;51.446;6.698;2024-03-25T01:04:35;18.87;;;6.20;;
12271;SDS011;6198;51.446;6.698;2024-03-25T01:07:01;18.57;;;5.67;;
12271;SDS011;6198;51.446;6.698;2024-03-25T01:09:28;20.20;;;5.37;;
12271;SDS011;6198;51.446;6.698;2024-03-25T01:11:54;20.07;;;5.60;;
12271;SDS011;6198;51.446;6.698;2024-03-25T01:14:20;18.73;;;5.03;;
12271;SDS011;6198;51.446;6.698;2024-03-25T01:16:46;21.17;;;5.03;;
12271;SDS011;6198;51.446;6.698;2024-03-25T01:19:12;25.20;;;6.03;;
12271;SDS011;6198;51.446;6.698;2024-03-25T01:21:38;20.53;;;5.37;;
12271;SDS011;6198;51.446;6.698;2024-03-25T01:24:04;17.37;;;5.33;;
12271;SDS011;6198;51.446;6.698;2024-03-25T01:26:30;13.03;;;4.87;;
12271;SDS011;6198;51.446;6.698;2024-03-25T01:28:56;21.63;;;5.70;;
12271;SDS011;6198;51.446;6.698;2024-03-25T01:31:22;18.23;;;4.97;;
12271;SDS011;6198;51.446;6.698;2024-03-25T01:33:48;20.93;;;5.17;;
12271;SDS011;6198;51.446;6.698;2024-03-25T01:36:14;18.47;;;4.77;;
12271;SDS011;6198;51.446;6.698;2024-03-25T01:38:43;15.13;;;4.37;;
12271;SDS011;6198;51.446;6.698;2024-03-25T01:41:10;20.83;;;5.20;;
12271;SDS011;6198;51.446;6.698;2024-03-25T01:43:36;19.13;;;5.37;;
12271;SDS011;6198;51.446;6.698;2024-03-25T01:46:02;23.60;;;5.80;;
12271;SDS011;6198;51.446;6.698;2024-03-25T01:48:28;20.40;;;5.17;;
12271;SDS011;6198;51.446;6.698;2024-03-25T01:50:54;19.27;;;5.77;;
12271;SDS011;6198;51.446;6.698;2024-03-25T01:53:21;17.17;;;5.53;;
12271;SDS011;6198;51.446;6.698;2024-03-25T01:55:47;21.53;;;5.17;;
12271;SDS011;6198;51.446;6.698;2024-03-25T01:58:14;15.37;;;5.13;;
12271;SDS011;6198;51.446;6.698;2024-03-25T02:00:40;20.70;;;5.00;;
12271;SDS011;6198;51.446;6.698;2024-03-25T02:03:06;21.40;;;5.07;;
12271;SDS011;6198;51.446;6.698;2024-03-25T02:05:33;21.13;;;5.30;;
12271;SDS011;6198;51.446;6.698;2024-03-25T02:08:00;16.20;;;4.77;;
12271;SDS011;6198;51.446;6.698;2024-03-25T02:10:27;23.83;;;5.20;;
12271;SDS011;6198;51.446;6.698;2024-03-25T02:12:53;14.90;;;5.23;;
12271;SDS011;6198;51.446;6.698;2024-03-25T02:15:19;18.33;;;5.50;;
12271;SDS011;6198;51.446;6.698;2024-03-25T02:17:45;22.10;;;5.67;;
12271;SDS011;6198;51.446;6.698;2024-03-25T02:20:11;21.30;;;5.80;;
12271;SDS011;6198;51.446;6.698;2024-03-25T02:22:40;21.00;;;5.20;;
12271;SDS011;6198;51.446;6.698;2024-03-25T02:25:08;23.87;;;5.63;;
12271;SDS011;6198;51.446;6.698;2024-03-25T02:27:35;19.77;;;5.53;;
12271;SDS011;6198;51.446;6.698;2024-03-25T02:30:02;19.90;;;5.33;;
12271;SDS011;6198;51.446;6.698;2024-03-25T02:32:28;23.20;;;5.37;;
12271;SDS011;6198;51.446;6.698;2024-03-25T02:34:54;27.83;;;5.10;;
12271;SDS011;6198;51.446;6.698;2024-03-25T02:37:20;31.23;;;5.90;;
12271;SDS011;6198;51.446;6.698;2024-03-25T02:39:47;20.87;;;6.27;;
12271;SDS011;6198;51.446;6.698;2024-03-25T02:42:13;25.70;;;6.10;;
12271;SDS011;6198;51.446;6.698;2024-03-25T02:44:39;27.67;;;5.83;;
12271;SDS011;6198;51.446;6.698;2024-03-25T02:47:08;29.30;;;6.17;;
12271;SDS011;6198;51.446;6.698;2024-03-25T02:49:34;14.33;;;5.57;;
12271;SDS011;6198;51.446;6.698;2024-03-25T02:52:00;25.73;;;5.93;;
12271;SDS011;6198;51.446;6.698;2024-03-25T02:54:26;21.37;;;6.10;;
12271;SDS011;6198;51.446;6.698;2024-03-25T02:56:52;20.77;;;6.17;;
12271;SDS011;6198;51.446;6.698;2024-03-25T02:59:18;32.87;;;6.83;;
12271;SDS011;6198;51.446;6.698;2024-03-25T03:01:44;21.10;;;5.83;;
12271;SDS011;6198;51.446;6.698;2024-03-25T03:04:10;28.27;;;6.40;;
12271;SDS011;6198;51.446;6.698;2024-03-25T03:06:36;26.73;;;6.93;;
12271;SDS011;6198;51.446;6.698;2024-03-25T03:09:02;26.93;;;7.00;;
12271;SDS011;6198;51.446;6.698;2024-03-25T03:11:28;30.07;;;7.00;;
12271;SDS011;6198;51.446;6.698;2024-03-25T03:13:54;29.00;;;6.17;;
12271;SDS011;6198;51.446;6.698;2024-03-25T03:16:20;29.20;;;6.80;;
12271;SDS011;6198;51.446;6.698;2024-03-25T03:18:46;24.43;;;7.07;;
12271;SDS011;6198;51.446;6.698;2024-03-25T03:21:12;19.03;;;6.33;;
12271;SDS011;6198;51.446;6.698;2024-03-25T03:23:37;22.03;;;6.90;;
12271;SDS011;6198;51.446;6.698;2024-03-25T03:26:03;24.17;;;7.30;;
12271;SDS011;6198;51.446;6.698;2024-03-25T03:28:30;32.20;;;7.93;;
12271;SDS011;6198;51.446;6.698;2024-03-25T03:30:56;29.97;;;7.60;;
12271;SDS011;6198;51.446;6.698;2024-03-25T03:33:22;25.20;;;8.40;;
12271;SDS011;6198;51.446;6.698;2024-03-25T03:35:49;23.63;;;9.00;;
12271;SDS011;6198;51.446;6.698;2024-03-25T03:38:15;21.10;;;7.23;;
12271;SDS011;6198;51.446;6.698;2024-03-25T03:40:41;28.00;;;7.83;;
12271;SDS011;6198;51.446;6.698;2024-03-25T03:43:07;21.90;;;7.30;;
12271;SDS011;6198;51.446;6.698;2024-03-25T03:45:33;27.73;;;8.87;;
12271;SDS011;6198;51.446;6.698;2024-03-25T03:48:00;21.03;;;7.60;;
12271;SDS011;6198;51.446;6.698;2024-03-25T03:50:26;25.83;;;8.87;;
12271;SDS011;6198;51.446;6.698;2024-03-25T03:52:52;23.33;;;7.47;;
12271;SDS011;6198;51.446;6.698;2024-03-25T03:55:18;25.43;;;8.60;;
12271;SDS011;6198;51.446;6.698;2024-03-25T03:57:44;20.67;;;7.17;;
12271;SDS011;6198;51.446;6.698;2024-03-25T04:00:10;13.33;;;6.80;;
12271;SDS011;6198;51.446;6.698;2024-03-25T04:02:36;22.70;;;7.40;;
12271;SDS011;6198;51.446;6.698;2024-03-25T04:05:03;22.43;;;6.77;;
12271;SDS011;6198;51.446;6.698;2024-03-25T04:07:29;27.07;;;8.13;;
12271;SDS011;6198;51.446;6.698;2024-03-25T04:09:57;18.00;;;7.63;;
12271;SDS011;6198;51.446;6.698;2024-03-25T04:12:24;21.13;;;7.17;;
12271;SDS011;6198;51.446;6.698;2024-03-25T04:14:50;23.73;;;7.47;;
12271;SDS011;6198;51.446;6.698;2024-03-25T04:17:20;21.60;;;8.20;;
12271;SDS011;6198;51.446;6.698;2024-03-25T04:19:46;19.13;;;8.57;;
12271;SDS011;6198;51.446;6.698;2024-03-25T04:22:12;19.63;;;7.37;;
12271;SDS011;6198;51.446;6.698;2024-03-25T04:24:38;23.43;;;7.70;;
12271;SDS011;6198;51.446;6.698;2024-03-25T04:27:04;22.53;;;6.43;;
12271;SDS011;6198;51.446;6.698;2024-03-25T04:29:30;25.73;;;7.43;;
12271;SDS011;6198;51.446;6.698;2024-03-25T04:31:56;27.73;;;7.90;;
12271;SDS011;6198;51.446;6.698;2024-03-25T04:34:22;21.63;;;8.00;;
12271;SDS011;6198;51.446;6.698;2024-03-25T04:36:48;20.77;;;7.70;;
12271;SDS011;6198;51.446;6.698;2024-03-25T04:39:14;16.07;;;6.90;;
12271;SDS011;6198;51.446;6.698;2024-03-25T04:41:40;20.43;;;6.80;;
12271;SDS011;6198;51.446;6.698;2024-03-25T04:44:06;20.90;;;7.33;;
12271;SDS011;6198;51.446;6.698;2024-03-25T04:46:32;26.43;;;7.63;;
12271;SDS011;6198;51.446;6.698;2024-03-25T04:48:58;21.03;;;7.17;;
12271;SDS011;6198;51.446;6.698;2024-03-25T04:51:24;22.33;;;7.10;;
12271;SDS011;6198;51.446;6.698;2024-03-25T04:53:51;24.17;;;7.53;;
12271;SDS011;6198;51.446;6.698;2024-03-25T04:56:18;30.90;;;9.48;;
12271;SDS011;6198;51.446;6.698;2024-03-25T04:58:44;24.53;;;8.00;;
12271;SDS011;6198;51.446;6.698;2024-03-25T05:01:10;30.00;;;8.17;;
12271;SDS011;6198;51.446;6.698;2024-03-25T05:03:35;24.27;;;7.97;;
12271;SDS011;6198;51.446;6.698;2024-03-25T05:06:01;27.47;;;7.77;;
12271;SDS011;6198;51.446;6.698;2024-03-25T05:08:30;22.23;;;7.77;;
12271;SDS011;6198;51.446;6.698;2024-03-25T05:10:56;28.93;;;8.40;;
12271;SDS011;6198;51.446;6.698;2024-03-25T05:13:22;18.27;;;7.07;;
12271;SDS011;6198;51.446;6.698;2024-03-25T05:15:51;28.30;;;9.03;;
12271;SDS011;6198;51.446;6.698;2024-03-25T05:18:18;23.73;;;7.63;;
12271;SDS011;6198;51.446;6.698;2024-03-25T05:20:44;23.37;;;8.20;;
12271;SDS011;6198;51.446;6.698;2024-03-25T05:23:10;28.60;;;8.37;;
12271;SDS011;6198;51.446;6.698;2024-03-25T05:25:36;25.47;;;7.60;;
12271;SDS011;6198;51.446;6.698;2024-03-25T05:28:03;19.63;;;7.40;;
12271;SDS011;6198;51.446;6.698;2024-03-25T05:30:29;29.27;;;8.97;;
12271;SDS011;6198;51.446;6.698;2024-03-25T05:32:55;21.77;;;8.70;;
12271;SDS011;6198;51.446;6.698;2024-03-25T05:35:21;27.47;;;9.40;;
12271;SDS011;6198;51.446;6.698;2024-03-25T05:37:47;25.00;;;7.73;;
12271;SDS011;6198;51.446;6.698;2024-03-25T05:40:13;23.53;;;8.17;;
12271;SDS011;6198;51.446;6.698;2024-03-25T05:42:40;22.40;;;7.80;;
12271;SDS011;6198;51.446;6.698;2024-03-25T05:45:06;22.17;;;7.87;;
12271;SDS011;6198;51.446;6.698;2024-03-25T05:47:34;26.30;;;8.17;;
12271;SDS011;6198;51.446;6.698;2024-03-25T05:50:00;22.20;;;8.30;;
12271;SDS011;6198;51.446;6.698;2024-03-25T05:52:28;35.23;;;9.07;;
12271;SDS011;6198;51.446;6.698;2024-03-25T05:54:54;21.73;;;8.63;;
12271;SDS011;6198;51.446;6.698;2024-03-25T05:57:20;25.73;;;9.13;;
12271;SDS011;6198;51.446;6.698;2024-03-25T05:59:46;19.73;;;7.53;;
12271;SDS011;6198;51.446;6.698;2024-03-25T06:02:12;21.27;;;8.73;;
12271;SDS011;6198;51.446;6.698;2024-03-25T06:04:38;31.13;;;9.03;;
12271;SDS011;6198;51.446;6.698;2024-03-25T06:07:04;20.07;;;9.07;;
12271;SDS011;6198;51.446;6.698;2024-03-25T06:09:30;27.20;;;9.80;;
12271;SDS011;6198;51.446;6.698;2024-03-25T06:11:56;16.40;;;8.60;;
12271;SDS011;6198;51.446;6.698;2024-03-25T06:14:22;25.93;;;8.10;;
12271;SDS011;6198;51.446;6.698;2024-03-25T06:16:48;22.07;;;8.17;;
12271;SDS011;6198;51.446;6.698;2024-03-25T06:19:15;28.33;;;8.90;;
12271;SDS011;6198;51.446;6.698;2024-03-25T06:21:40;30.57;;;10.00;;
12271;SDS011;6198;51.446;6.698;2024-03-25T06:24:07;26.40;;;8.90;;
12271;SDS011;6198;51.446;6.698;2024-03-25T06:26:33;25.33;;;9.27;;
12271;SDS011;6198;51.446;6.698;2024-03-25T06:28:59;24.13;;;8.67;;
12271;SDS011;6198;51.446;6.698;2024-03-25T06:31:25;33.50;;;9.90;;
12271;SDS011;6198;51.446;6.698;2024-03-25T06:34:10;28.13;;;9.20;;
12271;SDS011;6198;51.446;6.698;2024-03-25T06:36:39;20.87;;;8.53;;
12271;SDS011;6198;51.446;6.698;2024-03-25T06:39:05;29.43;;;8.93;;
12271;SDS011;6198;51.446;6.698;2024-03-25T06:41:31;21.80;;;8.63;;
12271;SDS011;6198;51.446;6.698;2024-03-25T06:43:57;16.47;;;8.13;;
12271;SDS011;6198;51.446;6.698;2024-03-25T06:46:23;25.07;;;8.90;;
12271;SDS011;6198;51.446;6.698;2024-03-25T06:48:49;21.40;;;8.67;;
12271;SDS011;6198;51.446;6.698;2024-03-25T06:51:17;22.10;;;8.77;;
12271;SDS011;6198;51.446;6.698;2024-03-25T06:53:43;21.10;;;9.13;;
12271;SDS011;6198;51.446;6.698;2024-03-25T06:56:09;28.20;;;9.37;;
12271;SDS011;6198;51.446;6.698;2024-03-25T06:58:35;23.43;;;9.80;;
12271;SDS011;6198;51.446;6.698;2024-03-25T07:01:05;21.13;;;8.90;;
12271;SDS011;6198;51.446;6.698;2024-03-25T07:03:32;21.80;;;9.33;;
12271;SDS011;6198;51.446;6.698;2024-03-25T07:05:58;20.37;;;8.73;;
12271;SDS011;6198;51.446;6.698;2024-03-25T07:08:25;21.67;;;7.90;;
12271;SDS011;6198;51.446;6.698;2024-03-25T07:10:51;23.97;;;8.47;;
12271;SDS011;6198;51.446;6.698;2024-03-25T07:13:17;19.67;;;6.87;;
12271;SDS011;6198;51.446;6.698;2024-03-25T07:15:43;19.63;;;7.10;;
12271;SDS011;6198;51.446;6.698;2024-03-25T07:18:10;19.57;;;6.97;;
12271;SDS011;6198;51.446;6.698;2024-03-25T07:20:37;20.60;;;7.77;;
12271;SDS011;6198;51.446;6.698;2024-03-25T07:23:04;15.83;;;6.10;;
12271;SDS011;6198;51.446;6.698;2024-03-25T07:25:30;17.13;;;6.07;;
12271;SDS011;6198;51.446;6.698;2024-03-25T07:27:56;21.50;;;7.23;;
12271;SDS011;6198;51.446;6.698;2024-03-25T07:30:22;16.97;;;6.47;;
12271;SDS011;6198;51.446;6.698;2024-03-25T07:32:52;13.83;;;6.37;;
12271;SDS011;6198;51.446;6.698;2024-03-25T07:35:18;20.00;;;6.47;;
12271;SDS011;6198;51.446;6.698;2024-03-25T07:37:44;18.87;;;6.53;;
12271;SDS011;6198;51.446;6.698;2024-03-25T07:40:10;16.87;;;6.87;;
12271;SDS011;6198;51.446;6.698;2024-03-25T07:42:39;22.07;;;7.07;;
12271;SDS011;6198;51.446;6.698;2024-03-25T07:45:05;16.03;;;6.60;;
12271;SDS011;6198;51.446;6.698;2024-03-25T07:47:32;20.03;;;6.33;;
12271;SDS011;6198;51.446;6.698;2024-03-25T07:49:58;21.93;;;6.93;;
12271;SDS011;6198;51.446;6.698;2024-03-25T07:52:24;17.13;;;7.27;;
12271;SDS011;6198;51.446;6.698;2024-03-25T07:54:50;14.30;;;6.60;;
12271;SDS011;6198;51.446;6.698;2024-03-25T07:57:17;18.13;;;7.30;;
12271;SDS011;6198;51.446;6.698;2024-03-25T07:59:44;22.23;;;6.97;;
12271;SDS011;6198;51.446;6.698;2024-03-25T08:02:10;19.83;;;6.43;;
12271;SDS011;6198;51.446;6.698;2024-03-25T08:04:36;16.90;;;6.90;;
12271;SDS011;6198;51.446;6.698;2024-03-25T08:07:02;20.43;;;5.63;;
12271;SDS011;6198;51.446;6.698;2024-03-25T08:09:28;15.90;;;7.07;;
12271;SDS011;6198;51.446;6.698;2024-03-25T08:11:54;18.13;;;6.03;;
12271;SDS011;6198;51.446;6.698;2024-03-25T08:14:20;15.47;;;5.57;;
12271;SDS011;6198;51.446;6.698;2024-03-25T08:16:46;20.43;;;6.57;;
12271;SDS011;6198;51.446;6.698;2024-03-25T08:19:12;16.07;;;5.37;;
12271;SDS011;6198;51.446;6.698;2024-03-25T08:21:38;20.63;;;5.50;;
12271;SDS011;6198;51.446;6.698;2024-03-25T08:24:04;16.07;;;4.73;;
12271;SDS011;6198;51.446;6.698;2024-03-25T08:26:30;13.13;;;5.07;;
12271;SDS011;6198;51.446;6.698;2024-03-25T08:28:57;19.40;;;5.57;;
12271;SDS011;6198;51.446;6.698;2024-03-25T08:31:23;13.53;;;5.00;;
12271;SDS011;6198;51.446;6.698;2024-03-25T08:33:49;13.57;;;5.13;;
12271;SDS011;6198;51.446;6.698;2024-03-25T08:36:15;18.33;;;5.30;;
12271;SDS011;6198;51.446;6.698;2024-03-25T08:38:41;15.13;;;4.03;;
12271;SDS011;6198;51.446;6.698;2024-03-25T08:41:07;13.77;;;5.00;;
12271;SDS011;6198;51.446;6.698;2024-03-25T08:43:33;12.37;;;5.10;;
12271;SDS011;6198;51.446;6.698;2024-03-25T08:45:59;16.07;;;5.13;;
12271;SDS011;6198;51.446;6.698;2024-03-25T08:48:25;22.60;;;4.80;;
12271;SDS011;6198;51.446;6.698;2024-03-25T08:50:51;11.13;;;4.17;;
12271;SDS011;6198;51.446;6.698;2024-03-25T08:53:17;14.10;;;4.53;;
12271;SDS011;6198;51.446;6.698;2024-03-25T08:55:46;11.13;;;4.07;;
12271;SDS011;6198;51.446;6.698;2024-03-25T08:58:12;16.53;;;4.33;;
12271;SDS011;6198;51.446;6.698;2024-03-25T09:00:39;14.70;;;4.00;;
12271;SDS011;6198;51.446;6.698;2024-03-25T09:03:05;18.07;;;4.50;;
12271;SDS011;6198;51.446;6.698;2024-03-25T09:05:31;11.80;;;4.97;;
12271;SDS011;6198;51.446;6.698;2024-03-25T09:07:57;11.53;;;4.07;;
12271;SDS011;6198;51.446;6.698;2024-03-25T09:10:23;15.30;;;3.90;;
12271;SDS011;6198;51.446;6.698;2024-03-25T09:13:08;15.87;;;3.90;;
12271;SDS011;6198;51.446;6.698;2024-03-25T09:15:34;11.67;;;3.53;;
12271;SDS011;6198;51.446;6.698;2024-03-25T09:18:00;15.17;;;4.47;;
12271;SDS011;6198;51.446;6.698;2024-03-25T09:20:26;12.97;;;4.27;;
12271;SDS011;6198;51.446;6.698;2024-03-25T09:22:52;13.10;;;4.90;;
12271;SDS011;6198;51.446;6.698;2024-03-25T09:25:18;13.83;;;4.30;;
12271;SDS011;6198;51.446;6.698;2024-03-25T09:27:47;16.50;;;4.83;;
12271;SDS011;6198;51.446;6.698;2024-03-25T09:30:14;12.93;;;3.87;;
12271;SDS011;6198;51.446;6.698;2024-03-25T09:32:40;15.17;;;3.70;;
12271;SDS011;6198;51.446;6.698;2024-03-25T09:35:07;10.00;;;3.50;;
12271;SDS011;6198;51.446;6.698;2024-03-25T09:37:33;11.30;;;3.17;;
12271;SDS011;6198;51.446;6.698;2024-03-25T09:39:59;15.33;;;3.70;;
12271;SDS011;6198;51.446;6.698;2024-03-25T09:42:25;7.23;;;3.03;;
12271;SDS011;6198;51.446;6.698;2024-03-25T09:44:55;18.23;;;3.97;;
12271;SDS011;6198;51.446;6.698;2024-03-25T09:47:22;17.43;;;4.97;;
12271;SDS011;6198;51.446;6.698;2024-03-25T09:49:48;7.60;;;3.07;;
12271;SDS011;6198;51.446;6.698;2024-03-25T09:52:14;11.00;;;3.57;;
12271;SDS011;6198;51.446;6.698;2024-03-25T09:54:41;8.47;;;3.27;;
12271;SDS011;6198;51.446;6.698;2024-03-25T09:57:07;16.60;;;3.57;;
12271;SDS011;6198;51.446;6.698;2024-03-25T09:59:34;13.90;;;3.37;;
12271;SDS011;6198;51.446;6.698;2024-03-25T10:02:00;11.43;;;3.60;;
12271;SDS011;6198;51.446;6.698;2024-03-25T10:04:27;9.63;;;3.43;;
12271;SDS011;6198;51.446;6.698;2024-03-25T10:06:53;10.93;;;3.90;;
12271;SDS011;6198;51.446;6.698;2024-03-25T10:09:22;8.73;;;3.30;;
12271;SDS011;6198;51.446;6.698;2024-03-25T10:11:48;8.10;;;3.20;;
12271;SDS011;6198;51.446;6.698;2024-03-25T10:14:18;10.23;;;3.60;;
12271;SDS011;6198;51.446;6.698;2024-03-25T10:16:44;13.07;;;2.93;;
12271;SDS011;6198;51.446;6.698;2024-03-25T10:19:10;9.23;;;3.17;;
12271;SDS011;6198;51.446;6.698;2024-03-25T10:21:36;12.83;;;3.23;;
12271;SDS011;6198;51.446;6.698;2024-03-25T10:24:04;8.23;;;3.17;;
12271;SDS011;6198;51.446;6.698;2024-03-25T10:26:31;11.20;;;3.40;;
12271;SDS011;6198;51.446;6.698;2024-03-25T10:29:04;11.43;;;3.63;;
12271;SDS011;6198;51.446;6.698;2024-03-25T10:31:31;9.13;;;3.17;;
12271;SDS011;6198;51.446;6.698;2024-03-25T10:33:57;11.50;;;3.50;;
12271;SDS011;6198;51.446;6.698;2024-03-25T10:36:23;8.40;;;3.70;;
12271;SDS011;6198;51.446;6.698;2024-03-25T10:38:51;8.53;;;3.80;;
12271;SDS011;6198;51.446;6.698;2024-03-25T10:41:19;10.33;;;3.30;;
12271;SDS011;6198;51.446;6.698;2024-03-25T10:43:46;13.43;;;3.30;;
12271;SDS011;6198;51.446;6.698;2024-03-25T10:46:17;11.83;;;3.63;;
12271;SDS011;6198;51.446;6.698;2024-03-25T10:48:44;5.80;;;2.77;;
12271;SDS011;6198;51.446;6.698;2024-03-25T10:51:13;7.47;;;3.27;;
12271;SDS011;6198;51.446;6.698;2024-03-25T10:53:39;6.03;;;2.50;;
12271;SDS011;6198;51.446;6.698;2024-03-25T10:56:06;9.73;;;3.57;;
12271;SDS011;6198;51.446;6.698;2024-03-25T10:58:33;11.30;;;3.30;;
12271;SDS011;6198;51.446;6.698;2024-03-25T11:00:59;8.97;;;3.13;;
12271;SDS011;6198;51.446;6.698;2024-03-25T11:03:25;7.10;;;2.40;;
12271;SDS011;6198;51.446;6.698;2024-03-25T11:05:52;6.17;;;2.37;;
12271;SDS011;6198;51.446;6.698;2024-03-25T11:08:18;9.43;;;4.43;;
12271;SDS011;6198;51.446;6.698;2024-03-25T11:10:44;6.97;;;3.40;;
12271;SDS011;6198;51.446;6.698;2024-03-25T11:13:12;6.93;;;3.60;;
12271;SDS011;6198;51.446;6.698;2024-03-25T11:15:41;6.97;;;3.60;;
12271;SDS011;6198;51.446;6.698;2024-03-25T11:18:14;16.87;;;4.70;;
12271;SDS011;6198;51.446;6.698;2024-03-25T11:20:41;13.80;;;5.27;;
12271;SDS011;6198;51.446;6.698;2024-03-25T11:23:08;11.93;;;5.00;;
12271;SDS011;6198;51.446;6.698;2024-03-25T11:25:34;12.27;;;4.20;;
12271;SDS011;6198;51.446;6.698;2024-03-25T11:28:00;10.93;;;4.97;;
12271;SDS011;6198;51.446;6.698;2024-03-25T11:30:26;11.90;;;5.20;;
12271;SDS011;6198;51.446;6.698;2024-03-25T11:32:53;9.33;;;4.53;;
12271;SDS011;6198;51.446;6.698;2024-03-25T11:35:19;18.00;;;4.87;;
12271;SDS011;6198;51.446;6.698;2024-03-25T11:37:45;11.60;;;4.30;;
12271;SDS011;6198;51.446;6.698;2024-03-25T11:40:12;13.57;;;7.27;;
12271;SDS011;6198;51.446;6.698;2024-03-25T11:42:39;13.10;;;4.97;;
12271;SDS011;6198;51.446;6.698;2024-03-25T11:45:06;9.77;;;3.83;;
12271;SDS011;6198;51.446;6.698;2024-03-25T11:47:32;12.43;;;4.23;;
12271;SDS011;6198;51.446;6.698;2024-03-25T11:49:58;7.70;;;4.20;;
12271;SDS011;6198;51.446;6.698;2024-03-25T11:52:24;8.33;;;4.50;;
12271;SDS011;6198;51.446;6.698;2024-03-25T11:54:56;12.37;;;5.27;;
12271;SDS011;6198;51.446;6.698;2024-03-25T11:57:22;13.18;;;6.32;;
12271;SDS011;6198;51.446;6.698;2024-03-25T11:59:48;12.23;;;5.47;;
12271;SDS011;6198;51.446;6.698;2024-03-25T12:02:15;18.53;;;6.50;;
12271;SDS011;6198;51.446;6.698;2024-03-25T12:04:44;16.40;;;7.63;;
12271;SDS011;6198;51.446;6.698;2024-03-25T12:07:13;13.43;;;6.60;;
12271;SDS011;6198;51.446;6.698;2024-03-25T12:09:39;13.80;;;6.47;;
12271;SDS011;6198;51.446;6.698;2024-03-25T12:12:26;15.73;;;6.50;;
12271;SDS011;6198;51.446;6.698;2024-03-25T12:14:52;20.77;;;7.00;;
12271;SDS011;6198;51.446;6.698;2024-03-25T12:17:18;13.07;;;6.00;;
12271;SDS011;6198;51.446;6.698;2024-03-25T12:19:57;10.60;;;4.57;;
12271;SDS011;6198;51.446;6.698;2024-03-25T12:22:24;7.20;;;3.47;;
12271;SDS011;6198;51.446;6.698;2024-03-25T12:24:50;7.07;;;3.67;;
12271;SDS011;6198;51.446;6.698;2024-03-25T12:27:16;6.60;;;3.53;;
12271;SDS011;6198;51.446;6.698;2024-03-25T12:29:42;8.30;;;3.90;;
12271;SDS011;6198;51.446;6.698;2024-03-25T12:32:09;11.73;;;4.93;;
12271;SDS011;6198;51.446;6.698;2024-03-25T12:34:35;11.67;;;4.83;;
12271;SDS011;6198;51.446;6.698;2024-03-25T12:37:01;11.10;;;5.30;;
12271;SDS011;6198;51.446;6.698;2024-03-25T12:39:29;13.17;;;4.47;;
12271;SDS011;6198;51.446;6.698;2024-03-25T12:41:55;7.80;;;4.13;;
12271;SDS011;6198;51.446;6.698;2024-03-25T12:44:21;8.30;;;3.73;;
12271;SDS011;6198;51.446;6.698;2024-03-25T12:46:47;6.67;;;3.83;;
12271;SDS011;6198;51.446;6.698;2024-03-25T12:49:13;10.67;;;4.43;;
12271;SDS011;6198;51.446;6.698;2024-03-25T12:51:39;12.03;;;4.33;;
12271;SDS011;6198;51.446;6.698;2024-03-25T12:54:05;6.00;;;3.53;;
12271;SDS011;6198;51.446;6.698;2024-03-25T12:56:31;7.33;;;3.80;;
12271;SDS011;6198;51.446;6.698;2024-03-25T12:58:57;7.77;;;3.53;;
12271;SDS011;6198;51.446;6.698;2024-03-25T13:01:23;8.13;;;4.10;;
12271;SDS011;6198;51.446;6.698;2024-03-25T13:03:49;9.77;;;4.23;;
12271;SDS011;6198;51.446;6.698;2024-03-25T13:06:15;9.87;;;4.93;;
12271;SDS011;6198;51.446;6.698;2024-03-25T13:08:40;8.10;;;3.97;;
12271;SDS011;6198;51.446;6.698;2024-03-25T13:11:06;13.43;;;4.13;;
12271;SDS011;6198;51.446;6.698;2024-03-25T13:13:33;10.47;;;3.63;;
12271;SDS011;6198;51.446;6.698;2024-03-25T13:15:59;9.27;;;4.07;;
12271;SDS011;6198;51.446;6.698;2024-03-25T13:18:24;6.87;;;3.90;;
12271;SDS011;6198;51.446;6.698;2024-03-25T13:20:50;9.77;;;4.20;;
12271;SDS011;6198;51.446;6.698;2024-03-25T13:23:16;11.90;;;4.07;;
12271;SDS011;6198;51.446;6.698;2024-03-25T13:25:42;8.33;;;3.83;;
12271;SDS011;6198;51.446;6.698;2024-03-25T13:28:08;8.47;;;4.77;;
12271;SDS011;6198;51.446;6.698;2024-03-25T13:30:34;9.20;;;4.50;;
12271;SDS011;6198;51.446;6.698;2024-03-25T13:33:00;8.67;;;3.63;;
12271;SDS011;6198;51.446;6.698;2024-03-25T13:35:26;9.93;;;3.60;;
12271;SDS011;6198;51.446;6.698;2024-03-25T13:37:52;7.33;;;4.37;;
12271;SDS011;6198;51.446;6.698;2024-03-25T13:40:18;13.53;;;5.13;;
12271;SDS011;6198;51.446;6.698;2024-03-25T13:42:44;8.37;;;3.57;;
12271;SDS011;6198;51.446;6.698;2024-03-25T13:45:11;7.37;;;4.10;;
12271;SDS011;6198;51.446;6.698;2024-03-25T13:47:38;6.13;;;3.30;;
12271;SDS011;6198;51.446;6.698;2024-03-25T13:50:04;8.80;;;4.37;;
12271;SDS011;6198;51.446;6.698;2024-03-25T13:52:34;7.83;;;3.13;;
12271;SDS011;6198;51.446;6.698;2024-03-25T13:55:01;7.67;;;3.70;;
12271;SDS011;6198;51.446;6.698;2024-03-25T13:57:27;9.63;;;3.90;;
12271;SDS011;6198;51.446;6.698;2024-03-25T13:59:52;10.13;;;3.77;;
12271;SDS011;6198;51.446;6.698;2024-03-25T14:02:18;7.57;;;3.40;;
12271;SDS011;6198;51.446;6.698;2024-03-25T14:04:44;5.07;;;2.93;;
12271;SDS011;6198;51.446;6.698;2024-03-25T14:07:10;9.20;;;3.43;;
12271;SDS011;6198;51.446;6.698;2024-03-25T14:09:36;10.53;;;3.67;;
12271;SDS011;6198;51.446;6.698;2024-03-25T14:12:02;6.33;;;3.07;;
12271;SDS011;6198;51.446;6.698;2024-03-25T14:14:29;13.80;;;3.87;;
12271;SDS011;6198;51.446;6.698;2024-03-25T14:16:54;6.27;;;3.10;;
12271;SDS011;6198;51.446;6.698;2024-03-25T14:19:20;8.80;;;3.30;;
12271;SDS011;6198;51.446;6.698;2024-03-25T14:21:48;5.77;;;3.27;;
12271;SDS011;6198;51.446;6.698;2024-03-25T14:24:14;8.03;;;3.37;;
12271;SDS011;6198;51.446;6.698;2024-03-25T14:26:40;6.83;;;3.33;;
12271;SDS011;6198;51.446;6.698;2024-03-25T14:29:06;4.27;;;2.70;;
12271;SDS011;6198;51.446;6.698;2024-03-25T14:31:32;4.07;;;2.50;;
12271;SDS011;6198;51.446;6.698;2024-03-25T14:33:58;4.90;;;2.63;;
12271;SDS011;6198;51.446;6.698;2024-03-25T14:36:24;6.30;;;2.90;;
12271;SDS011;6198;51.446;6.698;2024-03-25T14:38:50;5.13;;;2.60;;
12271;SDS011;6198;51.446;6.698;2024-03-25T14:41:20;5.43;;;2.90;;
12271;SDS011;6198;51.446;6.698;2024-03-25T14:43:46;6.03;;;3.60;;
12271;SDS011;6198;51.446;6.698;2024-03-25T14:46:13;4.70;;;3.37;;